Observation data for Brownfield on 11/08/2019      Previous  Date       Current Mesonet Observations  Soil Data  Daily Summary Page  Observations in Plain Language
KBWS 080600Z 01007KT 01/01 A3045 RMK A01 T00110009  RH  100%=      5-min Rain = 0
KBWS 080605Z 00007KT 01/01 A3045 RMK A01 T00110009  RH  100%=      5-min Rain = 0
KBWS 080610Z 01007KT 01/01 A3045 RMK A01 T00110009  RH  100%=      5-min Rain = 0
KBWS 080615Z 02007KT 01/01 A3045 RMK A01 T00100008  RH  100%=      5-min Rain = 0
KBWS 080620Z 01007KT 01/01 A3045 RMK A01 T00110009  RH  100%=      5-min Rain = 0
KBWS 080625Z 02008KT 01/01 A3045 RMK A01 T00110009  RH  100%=      5-min Rain = 0
KBWS 080630Z 01009KT 01/01 A3045 RMK A01 T00110009  RH  100%=      5-min Rain = 0
KBWS 080635Z 01008KT 01/01 A3045 RMK A01 T00090008  RH  100%=      5-min Rain = 0
KBWS 080640Z 01007KT 01/01 A3045 RMK A01 T00090007  RH  100%=      5-min Rain = 0
KBWS 080645Z 01007KT 01/01 A3045 RMK A01 T00090007  RH  100%=      5-min Rain = 0
KBWS 080650Z 01007KT 01/01 A3045 RMK A01 T00090007  RH  100%=      5-min Rain = 0
KBWS 080655Z 02007KT 01/01 A3045 RMK A01 T00090007  RH  100%=      5-min Rain = 0
KBWS 080700Z 02007KT 01/01 A3044 RMK A01 T00090007  RH  100%=      5-min Rain = 0
KBWS 080705Z 01007KT 01/01 A3044 RMK A01 T00090007  RH  100%=      5-min Rain = 0
KBWS 080710Z 01006KT 01/01 A3044 RMK A01 T00090007  RH  100%=      5-min Rain = 0
KBWS 080715Z 01006KT 01/01 A3044 RMK A01 T00090007  RH  100%=      5-min Rain = 0
KBWS 080720Z 01007KT 01/01 A3044 RMK A01 T00100007  RH  100%=      5-min Rain = 0
KBWS 080725Z 01006KT 01/01 A3044 RMK A01 T00100008  RH  100%=      5-min Rain = 0
KBWS 080730Z 01006KT 01/01 A3043 RMK A01 T00100008  RH  100%=      5-min Rain = 0
KBWS 080735Z 01006KT 01/01 A3044 RMK A01 T00110008  RH  100%=      5-min Rain = 0
KBWS 080740Z 01005KT 01/01 A3044 RMK A01 T00100008  RH  100%=      5-min Rain = 0
KBWS 080745Z 01006KT 01/01 A3043 RMK A01 T00110008  RH  100%=      5-min Rain = 0
KBWS 080750Z 01007KT 01/01 A3043 RMK A01 T00110008  RH  100%=      5-min Rain = 0
KBWS 080755Z 01005KT 01/01 A3043 RMK A01 T00110008  RH  099%=      5-min Rain = 0
KBWS 080800Z 01006KT 01/01 A3043 RMK A01 T00110008  RH  100%=      5-min Rain = 0
KBWS 080805Z 00005KT 01/01 A3043 RMK A01 T00110008  RH  100%=      5-min Rain = 0
KBWS 080810Z 02007KT 01/01 A3043 RMK A01 T00100008  RH  100%=      5-min Rain = 0
KBWS 080815Z 02007KT 01/01 A3043 RMK A01 T00100008  RH  100%=      5-min Rain = 0
KBWS 080820Z 02006KT 01/01 A3043 RMK A01 T00100008  RH  100%=      5-min Rain = 0
KBWS 080825Z 02006KT 01/01 A3043 RMK A01 T00110008  RH  100%=      5-min Rain = 0
KBWS 080830Z 01005KT 01/01 A3043 RMK A01 T00120009  RH  100%=      5-min Rain = 0
KBWS 080835Z 01006KT 01/01 A3043 RMK A01 T00120009  RH  100%=      5-min Rain = 0
KBWS 080840Z 01007KT 01/01 A3042 RMK A01 T00120009  RH  100%=      5-min Rain = 0
KBWS 080845Z 02007KT 01/01 A3042 RMK A01 T00110009  RH  100%=      5-min Rain = 0
KBWS 080850Z 01007KT 01/01 A3042 RMK A01 T00110009  RH  100%=      5-min Rain = 0
KBWS 080855Z 02006KT 01/01 A3042 RMK A01 T00110009  RH  100%=      5-min Rain = 0
KBWS 080900Z 02005KT 01/01 A3042 RMK A01 T00120009  RH  100%=      5-min Rain = 0
KBWS 080905Z 02005KT 01/01 A3042 RMK A01 T00110009  RH  099%=      5-min Rain = 0
KBWS 080910Z 01005KT 01/01 A3042 RMK A01 T00110008  RH  099%=      5-min Rain = 0
KBWS 080915Z 02005KT 01/01 A3042 RMK A01 T00110008  RH  099%=      5-min Rain = 0
KBWS 080920Z 01004KT 01/01 A3041 RMK A01 T00110009  RH  099%=      5-min Rain = 0
KBWS 080925Z 02004KT 01/01 A3041 RMK A01 T00110008  RH  099%=      5-min Rain = 0
KBWS 080930Z 01004KT 01/01 A3041 RMK A01 T00120009  RH  099%=      5-min Rain = 0
KBWS 080935Z 01004KT 01/01 A3041 RMK A01 T00120009  RH  099%=      5-min Rain = 0
KBWS 080940Z 00003KT 01/01 A3041 RMK A01 T00130010  RH  099%=      5-min Rain = 0
KBWS 080945Z 36003KT 01/01 A3041 RMK A01 T00130010  RH  099%=      5-min Rain = 0.01
KBWS 080950Z 34004KT 01/01 A3041 RMK A01 T00130010  RH  099%=      5-min Rain = 0
KBWS 080955Z 35003KT 01/01 A3041 RMK A01 T00130010  RH  099%=      5-min Rain = 0
KBWS 081000Z 35004KT 01/01 A3041 RMK A01 T00140011  RH  099%=      5-min Rain = 0
KBWS 081005Z 34005KT 02/01 A3041 RMK A01 T00150012  RH  099%=      5-min Rain = 0
KBWS 081010Z 34004KT 01/01 A3042 RMK A01 T00140011  RH  099%=      5-min Rain = 0
KBWS 081015Z 35005KT 01/01 A3041 RMK A01 T00140011  RH  099%=      5-min Rain = 0
KBWS 081020Z 36004KT 01/01 A3041 RMK A01 T00140010  RH  099%=      5-min Rain = 0
KBWS 081025Z 00003KT 01/01 A3041 RMK A01 T00140010  RH  099%=      5-min Rain = 0
KBWS 081030Z 00003KT 01/01 A3041 RMK A01 T00140010  RH  099%=      5-min Rain = 0
KBWS 081035Z 36003KT 01/01 A3041 RMK A01 T00140010  RH  099%=      5-min Rain = 0
KBWS 081040Z 34003KT 01/01 A3041 RMK A01 T00140011  RH  099%=      5-min Rain = 0
KBWS 081045Z 33004KT 02/01 A3041 RMK A01 T00150011  RH  099%=      5-min Rain = 0
KBWS 081050Z 33004KT 02/01 A3041 RMK A01 T00150012  RH  099%=      5-min Rain = 0
KBWS 081055Z 33004KT 02/01 A3041 RMK A01 T00150012  RH  099%=      5-min Rain = 0
KBWS 081100Z 32003KT 02/01 A3041 RMK A01 T00150012  RH  099%=      5-min Rain = 0
KBWS 081105Z 32004KT 02/01 A3041 RMK A01 T00160013  RH  099%=      5-min Rain = 0
KBWS 081110Z 31004KT 02/01 A3041 RMK A01 T00160013  RH  099%=      5-min Rain = 0
KBWS 081115Z 33005KT 02/01 A3041 RMK A01 T00170014  RH  099%=      5-min Rain = 0
KBWS 081120Z 33004KT 02/01 A3041 RMK A01 T00170014  RH  099%=      5-min Rain = 0
KBWS 081125Z 34004KT 02/01 A3041 RMK A01 T00170014  RH  099%=      5-min Rain = 0
KBWS 081130Z 36004KT 02/01 A304 RMK A01 T00170014  RH  099%=      5-min Rain = 0
KBWS 081135Z 35004KT 02/01 A304 RMK A01 T00170014  RH  099%=      5-min Rain = 0
KBWS 081140Z 36004KT 02/01 A304 RMK A01 T00170014  RH  099%=      5-min Rain = 0
KBWS 081145Z 36004KT 02/01 A304 RMK A01 T00170014  RH  099%=      5-min Rain = 0
KBWS 081150Z 36003KT 02/01 A304 RMK A01 T00170014  RH  099%=      5-min Rain = 0
KBWS 081155Z 00004KT 02/01 A304 RMK A01 T00180014  RH  099%=      5-min Rain = 0
KBWS 081200Z 36004KT 02/02 A304 RMK A01 T00180015  RH  099%=      5-min Rain = 0
KBWS 081205Z 36005KT 02/02 A304 RMK A01 T00190015  RH  099%=      5-min Rain = 0
KBWS 081210Z 35003KT 02/02 A304 RMK A01 T00190015  RH  099%=      5-min Rain = 0
KBWS 081215Z 34003KT 02/02 A304 RMK A01 T00200016  RH  099%=      5-min Rain = 0
KBWS 081220Z 34004KT 02/02 A304 RMK A01 T00200016  RH  098%=      5-min Rain = 0
KBWS 081225Z 35003KT 02/02 A304 RMK A01 T00200016  RH  098%=      5-min Rain = 0
KBWS 081230Z 36003KT 02/02 A304 RMK A01 T00210016  RH  098%=      5-min Rain = 0
KBWS 081235Z 02002KT 02/02 A304 RMK A01 T00210016  RH  098%=      5-min Rain = 0
KBWS 081240Z 05001KT 02/02 A304 RMK A01 T00210016  RH  098%=      5-min Rain = 0
KBWS 081245Z 05002KT 02/02 A3039 RMK A01 T00210015  RH  098%=      5-min Rain = 0
KBWS 081250Z 08002KT 02/02 A3039 RMK A01 T00210016  RH  098%=      5-min Rain = 0
KBWS 081255Z 09002KT 02/02 A3039 RMK A01 T00210015  RH  098%=      5-min Rain = 0
KBWS 081300Z 07002KT 02/02 A3039 RMK A01 T00210016  RH  098%=      5-min Rain = 0
KBWS 081305Z 06003KT 02/02 A3038 RMK A01 T00220017  RH  098%=      5-min Rain = 0
KBWS 081310Z 08003KT 02/02 A3038 RMK A01 T00220016  RH  098%=      5-min Rain = 0
KBWS 081315Z 07002KT 02/02 A3039 RMK A01 T00220016  RH  098%=      5-min Rain = 0
KBWS 081320Z 08001KT 02/02 A3039 RMK A01 T00220016  RH  098%=      5-min Rain = 0
KBWS 081325Z 03002KT 02/02 A304 RMK A01 T00220017  RH  098%=      5-min Rain = 0
KBWS 081330Z 02002KT 02/02 A304 RMK A01 T00230018  RH  098%=      5-min Rain = 0
KBWS 081335Z 03002KT 02/02 A304 RMK A01 T00230018  RH  098%=      5-min Rain = 0
KBWS 081340Z 05001KT 02/02 A304 RMK A01 T00230018  RH  098%=      5-min Rain = 0
KBWS 081345Z 05001KT 02/02 A304 RMK A01 T00240018  RH  098%=      5-min Rain = 0
KBWS 081350Z 07001KT 02/02 A304 RMK A01 T00240018  RH  098%=      5-min Rain = 0
KBWS 081355Z 13001KT 02/02 A304 RMK A01 T00240018  RH  098%=      5-min Rain = 0
KBWS 081400Z 13001KT 02/02 A304 RMK A01 T00240019  RH  098%=      5-min Rain = 0
KBWS 081405Z 18001KT 03/02 A3041 RMK A01 T00250019  RH  098%=      5-min Rain = 0
KBWS 081410Z 20001KT 03/02 A3041 RMK A01 T00250020  RH  098%=      5-min Rain = 0
KBWS 081415Z 20002KT 03/02 A3041 RMK A01 T00260021  RH  098%=      5-min Rain = 0
KBWS 081420Z 19001KT 03/02 A3041 RMK A01 T00270021  RH  098%=      5-min Rain = 0
KBWS 081425Z 19002KT 03/02 A3041 RMK A01 T00280022  RH  098%=      5-min Rain = 0
KBWS 081430Z 20001KT 03/02 A3041 RMK A01 T00280022  RH  097%=      5-min Rain = 0
KBWS 081435Z 22002KT 03/02 A3041 RMK A01 T00300024  RH  097%=      5-min Rain = 0
KBWS 081440Z 23001KT 03/02 A3042 RMK A01 T00300023  RH  097%=      5-min Rain = 0
KBWS 081445Z 29002KT 03/02 A3042 RMK A01 T00310024  RH  097%=      5-min Rain = 0
KBWS 081450Z 30002KT 03/02 A3042 RMK A01 T00320024  RH  096%=      5-min Rain = 0
KBWS 081455Z 29002KT 03/02 A3043 RMK A01 T00320023  RH  096%=      5-min Rain = 0
KBWS 081500Z 28003KT 03/02 A3043 RMK A01 T00330024  RH  095%=      5-min Rain = 0
KBWS 081505Z 29003KT 03/02 A3043 RMK A01 T00340024  RH  095%=      5-min Rain = 0
KBWS 081510Z 30003KT 04/03 A3043 RMK A01 T00350025  RH  095%=      5-min Rain = 0
KBWS 081515Z 29003KT 04/03 A3043 RMK A01 T00350025  RH  095%=      5-min Rain = 0
KBWS 081520Z 29003KT 04/03 A3043 RMK A01 T00360025  RH  094%=      5-min Rain = 0
KBWS 081525Z 30003KT 04/03 A3043 RMK A01 T00360026  RH  094%=      5-min Rain = 0
KBWS 081530Z 29002KT 04/03 A3043 RMK A01 T00360025  RH  094%=      5-min Rain = 0
KBWS 081535Z 30003KT 04/03 A3043 RMK A01 T00360026  RH  094%=      5-min Rain = 0
KBWS 081540Z 26002KT 04/03 A3043 RMK A01 T00370026  RH  094%=      5-min Rain = 0
KBWS 081545Z 24002KT 04/03 A3043 RMK A01 T00380026  RH  094%=      5-min Rain = 0
KBWS 081550Z 25002KT 04/03 A3043 RMK A01 T00390028  RH  094%=      5-min Rain = 0
KBWS 081555Z 27002KT 04/03 A3043 RMK A01 T00410029  RH  094%=      5-min Rain = 0
KBWS 081600Z 27002KT 04/03 A3043 RMK A01 T00410028  RH  093%=      5-min Rain = 0
KBWS 081605Z 29002KT 04/03 A3043 RMK A01 T00420028  RH  092%=      5-min Rain = 0
KBWS 081610Z 26001KT 04/03 A3043 RMK A01 T00430029  RH  092%=      5-min Rain = 0
KBWS 081615Z 22001KT 04/03 A3043 RMK A01 T00430028  RH  091%=      5-min Rain = 0
KBWS 081620Z 24001KT 05/03 A3043 RMK A01 T00450030  RH  092%=      5-min Rain = 0
KBWS 081625Z 27001KT 05/03 A3042 RMK A01 T00480032  RH  091%=      5-min Rain = 0
KBWS 081630Z 22001KT 05/03 A3042 RMK A01 T00480031  RH  090%=      5-min Rain = 0
KBWS 081635Z 25001KT 05/03 A3042 RMK A01 T00470028  RH  089%=      5-min Rain = 0
KBWS 081640Z 30002KT 05/03 A3042 RMK A01 T00500032  RH  090%=      5-min Rain = 0
KBWS 081645Z 31003KT 05/03 A3042 RMK A01 T00500031  RH  089%=      5-min Rain = 0
KBWS 081650Z 31001KT 05/03 A3042 RMK A01 T00510034  RH  090%=      5-min Rain = 0
KBWS 081655Z 25002KT 05/04 A3041 RMK A01 T00540035  RH  089%=      5-min Rain = 0
KBWS 081700Z 26001KT 06/03 A3041 RMK A01 T00550034  RH  088%=      5-min Rain = 0
KBWS 081705Z 28002KT 06/04 A3041 RMK A01 T00570036  RH  088%=      5-min Rain = 0
KBWS 081710Z 32002KT 06/03 A3041 RMK A01 T00550034  RH  088%=      5-min Rain = 0
KBWS 081715Z 27002KT 06/04 A3041 RMK A01 T00580037  RH  088%=      5-min Rain = 0
KBWS 081720Z 25002KT 06/04 A304 RMK A01 T00580036  RH  087%=      5-min Rain = 0
KBWS 081725Z 27002KT 06/04 A304 RMK A01 T00630041  RH  087%=      5-min Rain = 0
KBWS 081730Z 21002KT 07/04 A3039 RMK A01 T00650040  RH  086%=      5-min Rain = 0
KBWS 081735Z 24004KT 07/04 A3039 RMK A01 T00650040  RH  086%=      5-min Rain = 0
KBWS 081740Z 22003KT 07/04 A3039 RMK A01 T00670041  RH  085%=      5-min Rain = 0
KBWS 081745Z 22004KT 07/04 A3039 RMK A01 T00690043  RH  085%=      5-min Rain = 0
KBWS 081750Z 24004KT 07/04 A3038 RMK A01 T00700043  RH  085%=      5-min Rain = 0
KBWS 081755Z 25004KT 07/04 A3038 RMK A01 T00730044  RH  084%=      5-min Rain = 0
KBWS 081800Z 23005KT 07/05 A3038 RMK A01 T00740045  RH  083%=      5-min Rain = 0
KBWS 081805Z 26004KT 07/04 A3038 RMK A01 T00740044  RH  083%=      5-min Rain = 0
KBWS 081810Z 26003KT 08/05 A3038 RMK A01 T00750045  RH  083%=      5-min Rain = 0
KBWS 081815Z 25003KT 08/05 A3037 RMK A01 T00770046  RH  082%=      5-min Rain = 0
KBWS 081820Z 25004KT 08/05 A3037 RMK A01 T00770046  RH  082%=      5-min Rain = 0
KBWS 081825Z 26003KT 08/05 A3037 RMK A01 T00780046  RH  082%=      5-min Rain = 0
KBWS 081830Z 25005KT 08/05 A3036 RMK A01 T00800049  RH  082%=      5-min Rain = 0
KBWS 081835Z 24004KT 08/05 A3036 RMK A01 T00780046  RH  082%=      5-min Rain = 0
KBWS 081840Z 23005KT 08/05 A3036 RMK A01 T00800049  RH  083%=      5-min Rain = 0
KBWS 081845Z 24005KT 08/05 A3036 RMK A01 T00820049  RH  081%=      5-min Rain = 0
KBWS 081850Z 25003KT 08/05 A3035 RMK A01 T00810048  RH  081%=      5-min Rain = 0
KBWS 081855Z 26005KT 08/05 A3035 RMK A01 T00840052  RH  082%=      5-min Rain = 0
KBWS 081900Z 26004KT 08/05 A3035 RMK A01 T00840050  RH  081%=      5-min Rain = 0
KBWS 081905Z 26005KT 09/05 A3034 RMK A01 T00880053  RH  081%=      5-min Rain = 0
KBWS 081910Z 25006KT 09/05 A3034 RMK A01 T00880052  RH  080%=      5-min Rain = 0
KBWS 081915Z 26005KT 09/05 A3033 RMK A01 T00880052  RH  080%=      5-min Rain = 0
KBWS 081920Z 25006KT 09/05 A3033 RMK A01 T00900054  RH  080%=      5-min Rain = 0
KBWS 081925Z 23006KT 09/06 A3033 RMK A01 T00930055  RH  079%=      5-min Rain = 0
KBWS 081930Z 26006KT 10/06 A3033 RMK A01 T00950056  RH  079%=      5-min Rain = 0
KBWS 081935Z 26006KT 10/06 A3032 RMK A01 T00970058  RH  078%=      5-min Rain = 0
KBWS 081940Z 24007KT 10/06 A3032 RMK A01 T00980056  RH  077%=      5-min Rain = 0
KBWS 081945Z 25006KT 10/06 A3032 RMK A01 T00980057  RH  077%=      5-min Rain = 0
KBWS 081950Z 24006KT 10/06 A3032 RMK A01 T01000058  RH  077%=      5-min Rain = 0
KBWS 081955Z 23005KT 10/06 A3032 RMK A01 T00990058  RH  077%=      5-min Rain = 0
KBWS 082000Z 25006KT 10/06 A3031 RMK A01 T01040062  RH  077%=      5-min Rain = 0
KBWS 082005Z 24006KT 11/06 A3031 RMK A01 T01050061  RH  076%=      5-min Rain = 0
KBWS 082010Z 26005KT 11/06 A3031 RMK A01 T01050060  RH  076%=      5-min Rain = 0
KBWS 082015Z 27005KT 11/07 A3031 RMK A01 T01090065  RH  076%=      5-min Rain = 0
KBWS 082020Z 25005KT 11/06 A303 RMK A01 T01110064  RH  075%=      5-min Rain = 0
KBWS 082025Z 27005KT 11/06 A303 RMK A01 T01110063  RH  074%=      5-min Rain = 0
KBWS 082030Z 25006KT 11/07 A303 RMK A01 T01140065  RH  074%=      5-min Rain = 0
KBWS 082035Z 24007KT 12/07 A303 RMK A01 T01160065  RH  073%=      5-min Rain = 0
KBWS 082040Z 24006KT 12/07 A303 RMK A01 T01180065  RH  072%=      5-min Rain = 0
KBWS 082045Z 24006KT 12/07 A303 RMK A01 T01210068  RH  072%=      5-min Rain = 0
KBWS 082050Z 25004KT 12/07 A3029 RMK A01 T01200065  RH  071%=      5-min Rain = 0
KBWS 082055Z 25004KT 12/07 A3029 RMK A01 T01200066  RH  071%=      5-min Rain = 0
KBWS 082100Z 26006KT 12/07 A3029 RMK A01 T01230069  RH  071%=      5-min Rain = 0
KBWS 082105Z 25005KT 12/07 A3029 RMK A01 T01230067  RH  071%=      5-min Rain = 0
KBWS 082110Z 24006KT 12/07 A3029 RMK A01 T01220068  RH  072%=      5-min Rain = 0
KBWS 082115Z 25006KT 13/07 A3029 RMK A01 T01250069  RH  071%=      5-min Rain = 0
KBWS 082120Z 24006KT 12/07 A3029 RMK A01 T01230068  RH  071%=      5-min Rain = 0
KBWS 082125Z 24005KT 12/07 A3029 RMK A01 T01240068  RH  070%=      5-min Rain = 0
KBWS 082130Z 24005KT 13/07 A3029 RMK A01 T01270069  RH  070%=      5-min Rain = 0
KBWS 082135Z 22005KT 13/07 A3029 RMK A01 T01300072  RH  070%=      5-min Rain = 0
KBWS 082140Z 22005KT 13/07 A3029 RMK A01 T01280070  RH  070%=      5-min Rain = 0
KBWS 082145Z 21004KT 13/07 A3029 RMK A01 T01280071  RH  070%=      5-min Rain = 0
KBWS 082150Z 24005KT 13/07 A3029 RMK A01 T01300070  RH  069%=      5-min Rain = 0
KBWS 082155Z 22004KT 13/07 A3029 RMK A01 T01290073  RH  071%=      5-min Rain = 0
KBWS 082200Z 21006KT 13/07 A3029 RMK A01 T01280074  RH  072%=      5-min Rain = 0
KBWS 082205Z 20006KT 13/07 A3029 RMK A01 T01280074  RH  071%=      5-min Rain = 0
KBWS 082210Z 20006KT 13/07 A3028 RMK A01 T01250072  RH  072%=      5-min Rain = 0
KBWS 082215Z 21006KT 12/07 A3029 RMK A01 T01230071  RH  073%=      5-min Rain = 0
KBWS 082220Z 20006KT 12/07 A3029 RMK A01 T01210073  RH  074%=      5-min Rain = 0
KBWS 082225Z 19006KT 12/07 A3029 RMK A01 T01190073  RH  076%=      5-min Rain = 0
KBWS 082230Z 20007KT 12/07 A3029 RMK A01 T01190074  RH  076%=      5-min Rain = 0
KBWS 082235Z 19006KT 12/08 A3029 RMK A01 T01220076  RH  075%=      5-min Rain = 0
KBWS 082240Z 19005KT 12/08 A3029 RMK A01 T01220075  RH  075%=      5-min Rain = 0
KBWS 082245Z 21006KT 12/08 A3029 RMK A01 T01200076  RH  076%=      5-min Rain = 0
KBWS 082250Z 20005KT 12/08 A3029 RMK A01 T01180076  RH  077%=      5-min Rain = 0
KBWS 082255Z 21006KT 12/08 A3029 RMK A01 T01160076  RH  078%=      5-min Rain = 0
KBWS 082300Z 20005KT 11/08 A3029 RMK A01 T01140076  RH  080%=      5-min Rain = 0
KBWS 082305Z 20006KT 11/08 A3029 RMK A01 T01120076  RH  081%=      5-min Rain = 0
KBWS 082310Z 20006KT 11/08 A3029 RMK A01 T01110076  RH  081%=      5-min Rain = 0
KBWS 082315Z 20005KT 11/08 A3029 RMK A01 T01100076  RH  082%=      5-min Rain = 0
KBWS 082320Z 19005KT 11/08 A3029 RMK A01 T01080076  RH  083%=      5-min Rain = 0
KBWS 082325Z 19005KT 11/08 A3028 RMK A01 T01060076  RH  084%=      5-min Rain = 0
KBWS 082330Z 20005KT 10/08 A3029 RMK A01 T01030076  RH  086%=      5-min Rain = 0
KBWS 082335Z 19005KT 10/08 A3029 RMK A01 T01010076  RH  087%=      5-min Rain = 0
KBWS 082340Z 19005KT 10/08 A3029 RMK A01 T00980076  RH  088%=      5-min Rain = 0
KBWS 082345Z 18005KT 10/07 A3029 RMK A01 T00960074  RH  089%=      5-min Rain = 0
KBWS 082350Z 18006KT 09/07 A3029 RMK A01 T00930072  RH  089%=      5-min Rain = 0
KBWS 082355Z 18007KT 09/07 A3029 RMK A01 T00920073  RH  090%=      5-min Rain = 0
KBWS 090000Z 18006KT 09/07 A3029 RMK A01 T00920073  RH  090%=      5-min Rain = 0
KBWS 090005Z 18006KT 09/07 A3029 RMK A01 T00900072  RH  091%=      5-min Rain = 0
KBWS 090010Z 18006KT 09/07 A3029 RMK A01 T00890071  RH  091%=      5-min Rain = 0
KBWS 090015Z 18006KT 09/07 A3029 RMK A01 T00870071  RH  092%=      5-min Rain = 0
KBWS 090020Z 17005KT 08/07 A3029 RMK A01 T00840068  RH  092%=      5-min Rain = 0
KBWS 090025Z 17005KT 08/07 A3029 RMK A01 T00820067  RH  093%=      5-min Rain = 0
KBWS 090030Z 17005KT 08/07 A3029 RMK A01 T00790065  RH  093%=      5-min Rain = 0
KBWS 090035Z 18005KT 08/07 A3029 RMK A01 T00800067  RH  094%=      5-min Rain = 0
KBWS 090040Z 18006KT 08/07 A3029 RMK A01 T00790065  RH  094%=      5-min Rain = 0
KBWS 090045Z 18006KT 08/07 A3029 RMK A01 T00790067  RH  094%=      5-min Rain = 0
KBWS 090050Z 18006KT 08/07 A3029 RMK A01 T00800067  RH  094%=      5-min Rain = 0
KBWS 090055Z 18006KT 08/07 A3029 RMK A01 T00800067  RH  094%=      5-min Rain = 0
KBWS 090100Z 18005KT 08/07 A3029 RMK A01 T00790066  RH  094%=      5-min Rain = 0
KBWS 090105Z 18006KT 08/06 A3029 RMK A01 T00770063  RH  093%=      5-min Rain = 0
KBWS 090110Z 18005KT 08/06 A3029 RMK A01 T00750062  RH  094%=      5-min Rain = 0
KBWS 090115Z 19006KT 08/06 A3029 RMK A01 T00760063  RH  094%=      5-min Rain = 0
KBWS 090120Z 18007KT 08/06 A303 RMK A01 T00760063  RH  094%=      5-min Rain = 0
KBWS 090125Z 19007KT 08/06 A303 RMK A01 T00760063  RH  094%=      5-min Rain = 0
KBWS 090130Z 19006KT 08/06 A303 RMK A01 T00750062  RH  094%=      5-min Rain = 0
KBWS 090135Z 19006KT 08/06 A303 RMK A01 T00750063  RH  094%=      5-min Rain = 0
KBWS 090140Z 20006KT 08/06 A303 RMK A01 T00750062  RH  094%=      5-min Rain = 0
KBWS 090145Z 20006KT 07/06 A303 RMK A01 T00740062  RH  094%=      5-min Rain = 0
KBWS 090150Z 19006KT 07/06 A303 RMK A01 T00730061  RH  094%=      5-min Rain = 0
KBWS 090155Z 20006KT 07/06 A303 RMK A01 T00720060  RH  094%=      5-min Rain = 0
KBWS 090200Z 20006KT 07/06 A303 RMK A01 T00710060  RH  095%=      5-min Rain = 0
KBWS 090205Z 19006KT 07/06 A303 RMK A01 T00700059  RH  095%=      5-min Rain = 0
KBWS 090210Z 19006KT 07/06 A303 RMK A01 T00710059  RH  095%=      5-min Rain = 0
KBWS 090215Z 19006KT 07/06 A303 RMK A01 T00700058  RH  094%=      5-min Rain = 0
KBWS 090220Z 19007KT 07/06 A303 RMK A01 T00700058  RH  095%=      5-min Rain = 0
KBWS 090225Z 20007KT 07/06 A303 RMK A01 T00700058  RH  095%=      5-min Rain = 0
KBWS 090230Z 19007KT 07/06 A303 RMK A01 T00710059  RH  095%=      5-min Rain = 0
KBWS 090235Z 20006KT 07/06 A303 RMK A01 T00710059  RH  094%=      5-min Rain = 0
KBWS 090240Z 20007KT 07/06 A303 RMK A01 T00700058  RH  094%=      5-min Rain = 0
KBWS 090245Z 20006KT 07/06 A303 RMK A01 T00690058  RH  095%=      5-min Rain = 0
KBWS 090250Z 20006KT 07/06 A303 RMK A01 T00680057  RH  095%=      5-min Rain = 0
KBWS 090255Z 20006KT 07/06 A303 RMK A01 T00670056  RH  095%=      5-min Rain = 0
KBWS 090300Z 21006KT 07/06 A303 RMK A01 T00660055  RH  095%=      5-min Rain = 0
KBWS 090305Z 20006KT 06/05 A303 RMK A01 T00640054  RH  095%=      5-min Rain = 0
KBWS 090310Z 20006KT 06/05 A303 RMK A01 T00620053  RH  096%=      5-min Rain = 0
KBWS 090315Z 20006KT 06/05 A303 RMK A01 T00610051  RH  096%=      5-min Rain = 0
KBWS 090320Z 20005KT 06/05 A303 RMK A01 T00590051  RH  096%=      5-min Rain = 0
KBWS 090325Z 20005KT 06/05 A303 RMK A01 T00580049  RH  096%=      5-min Rain = 0
KBWS 090330Z 20005KT 06/05 A303 RMK A01 T00560049  RH  097%=      5-min Rain = 0
KBWS 090335Z 21005KT 06/05 A303 RMK A01 T00560049  RH  097%=      5-min Rain = 0
KBWS 090340Z 21006KT 06/05 A303 RMK A01 T00560049  RH  097%=      5-min Rain = 0
KBWS 090345Z 21006KT 06/05 A303 RMK A01 T00560049  RH  097%=      5-min Rain = 0
KBWS 090350Z 21006KT 06/05 A303 RMK A01 T00560050  RH  098%=      5-min Rain = 0
KBWS 090355Z 21006KT 06/05 A303 RMK A01 T00570050  RH  098%=      5-min Rain = 0
KBWS 090400Z 21006KT 06/05 A303 RMK A01 T00570050  RH  098%=      5-min Rain = 0
KBWS 090405Z 22005KT 06/05 A303 RMK A01 T00560050  RH  098%=      5-min Rain = 0
KBWS 090410Z 22005KT 06/05 A303 RMK A01 T00560049  RH  098%=      5-min Rain = 0
KBWS 090415Z 22006KT 06/05 A303 RMK A01 T00560049  RH  098%=      5-min Rain = 0
KBWS 090420Z 22005KT 06/05 A303 RMK A01 T00550049  RH  098%=      5-min Rain = 0
KBWS 090425Z 22005KT 05/05 A303 RMK A01 T00540048  RH  098%=      5-min Rain = 0
KBWS 090430Z 22004KT 05/05 A3031 RMK A01 T00530047  RH  098%=      5-min Rain = 0
KBWS 090435Z 23005KT 05/05 A3031 RMK A01 T00520046  RH  098%=      5-min Rain = 0
KBWS 090440Z 23005KT 05/05 A3031 RMK A01 T00520046  RH  098%=      5-min Rain = 0
KBWS 090445Z 23005KT 05/05 A3031 RMK A01 T00510045  RH  098%=      5-min Rain = 0
KBWS 090450Z 23005KT 05/05 A3031 RMK A01 T00510045  RH  098%=      5-min Rain = 0
KBWS 090455Z 23004KT 05/05 A3031 RMK A01 T00520047  RH  099%=      5-min Rain = 0
KBWS 090500Z 23005KT 05/05 A3031 RMK A01 T00530048  RH  099%=      5-min Rain = 0
KBWS 090505Z 24006KT 05/05 A3031 RMK A01 T00520047  RH  099%=      5-min Rain = 0
KBWS 090510Z 24006KT 05/05 A303 RMK A01 T00510045  RH  098%=      5-min Rain = 0
KBWS 090515Z 24005KT 05/05 A303 RMK A01 T00500045  RH  099%=      5-min Rain = 0
KBWS 090520Z 25005KT 05/04 A303 RMK A01 T00490044  RH  099%=      5-min Rain = 0
KBWS 090525Z 25005KT 05/04 A303 RMK A01 T00490044  RH  099%=      5-min Rain = 0
KBWS 090530Z 25005KT 05/04 A303 RMK A01 T00480044  RH  099%=      5-min Rain = 0
KBWS 090535Z 25005KT 05/04 A303 RMK A01 T00480044  RH  099%=      5-min Rain = 0
KBWS 090540Z 25005KT 05/04 A303 RMK A01 T00480044  RH  099%=      5-min Rain = 0
KBWS 090545Z 25005KT 05/04 A303 RMK A01 T00480043  RH  099%=      5-min Rain = 0
KBWS 090550Z 25004KT 05/04 A303 RMK A01 T00470043  RH  099%=      5-min Rain = 0
KBWS 090555Z 25004KT 05/04 A303 RMK A01 T00450041  RH  099%=      5-min Rain = 0

Page generated in 0.0157 seconds.